X  Blizu METAR Podaci o vazduhoplovstvu     KDNN Dalton Municipal Airport
Temperatura
25°C Temperatura
21°C Tačka Rose
79% Vlaga



Vetar
0 M/S
0 MPS
0 KM/S
0 Čvorovi



Tiho
S
Trenutna situacija

Vedro Vedro
Vazdušni pritisak 1014.56 (hPa) - 29.96 (inHg)
Vidljivost 9 (Milje) - 14.5 (km)
Aerodrom
Aerodromski kod. KDNN

Lokacija: Dalton Municipal Airport
Udaljenost: 34 (km)

Metar:
KDNN 130115Z AUTO 00000KT 9SM CLR 25/21 A2996 RMK AO2 T02480211

Vreme: 06-12-2024 21:15 EDT